sensor_id;sensor_type;location;lat;lon;timestamp;pressure;altitude;pressure_sealevel;temperature;humidity
6694;BME280;3384;42.628;23.380;2022-10-01T10:35:17;94705.75;;;19.12;100.00
6694;BME280;3384;42.628;23.380;2022-10-01T10:37:46;94683.06;;;19.20;100.00
6694;BME280;3384;42.628;23.380;2022-10-01T10:40:17;94710.00;;;19.49;100.00
6694;BME280;3384;42.628;23.380;2022-10-01T10:42:49;94715.69;;;19.32;100.00
6694;BME280;3384;42.628;23.380;2022-10-01T10:45:29;94732.00;;;19.32;100.00
6694;BME280;3384;42.628;23.380;2022-10-01T10:47:59;94715.03;;;19.11;100.00
6694;BME280;3384;42.628;23.380;2022-10-01T10:50:30;94711.81;;;19.45;100.00
6694;BME280;3384;42.628;23.380;2022-10-01T10:52:57;94712.38;;;19.50;100.00
6694;BME280;3384;42.628;23.380;2022-10-01T10:55:26;94701.50;;;19.50;100.00
6694;BME280;3384;42.628;23.380;2022-10-01T10:57:57;94696.22;;;19.05;100.00
6694;BME280;3384;42.628;23.380;2022-10-01T11:00:35;94703.06;;;18.87;100.00
6694;BME280;3384;42.628;23.380;2022-10-01T11:03:13;94692.06;;;18.96;100.00
6694;BME280;3384;42.628;23.380;2022-10-01T11:05:42;94685.88;;;18.83;100.00
6694;BME280;3384;42.628;23.380;2022-10-01T11:08:12;94698.53;;;18.91;100.00
6694;BME280;3384;42.628;23.380;2022-10-01T11:10:45;94691.47;;;19.02;100.00
6694;BME280;3384;42.628;23.380;2022-10-01T11:13:28;94664.72;;;19.17;100.00
6694;BME280;3384;42.628;23.380;2022-10-01T11:16:27;94611.72;;;18.83;100.00
6694;BME280;3384;42.628;23.380;2022-10-01T11:19:18;94616.75;;;19.08;100.00
6694;BME280;3384;42.628;23.380;2022-10-01T11:21:58;94600.72;;;18.91;100.00
6694;BME280;3384;42.628;23.380;2022-10-01T11:27:24;94552.72;;;19.51;100.00
6694;BME280;3384;42.628;23.380;2022-10-01T11:30:03;94553.38;;;19.60;100.00
6694;BME280;3384;42.628;23.380;2022-10-01T11:32:37;94567.94;;;19.52;100.00
6694;BME280;3384;42.628;23.380;2022-10-01T11:35:26;94590.22;;;19.73;100.00
6694;BME280;3384;42.628;23.380;2022-10-01T11:38:26;94588.63;;;19.72;100.00
6694;BME280;3384;42.628;23.380;2022-10-01T11:41:12;94589.16;;;19.77;100.00
6694;BME280;3384;42.628;23.380;2022-10-01T11:43:48;94600.13;;;19.65;100.00
6694;BME280;3384;42.628;23.380;2022-10-01T11:46:24;94576.97;;;19.71;100.00
6694;BME280;3384;42.628;23.380;2022-10-01T11:48:59;94564.34;;;20.10;100.00
6694;BME280;3384;42.628;23.380;2022-10-01T11:51:33;94555.81;;;19.65;100.00
6694;BME280;3384;42.628;23.380;2022-10-01T11:54:08;94548.88;;;19.52;100.00
6694;BME280;3384;42.628;23.380;2022-10-01T11:56:41;94548.63;;;19.88;100.00
6694;BME280;3384;42.628;23.380;2022-10-01T11:59:29;94565.84;;;20.23;100.00
6694;BME280;3384;42.628;23.380;2022-10-01T12:02:05;94569.03;;;20.25;100.00
6694;BME280;3384;42.628;23.380;2022-10-01T12:04:43;94562.16;;;20.00;100.00
6694;BME280;3384;42.628;23.380;2022-10-01T12:07:19;94570.41;;;19.88;100.00
6694;BME280;3384;42.628;23.380;2022-10-01T12:09:59;94549.72;;;20.14;100.00
6694;BME280;3384;42.628;23.380;2022-10-01T12:12:30;94556.88;;;20.38;100.00
6694;BME280;3384;42.628;23.380;2022-10-01T12:15:04;94545.41;;;20.29;100.00
6694;BME280;3384;42.628;23.380;2022-10-01T12:17:37;94545.22;;;20.06;100.00
6694;BME280;3384;42.628;23.380;2022-10-01T12:20:16;94535.66;;;20.28;100.00
6694;BME280;3384;42.628;23.380;2022-10-01T12:22:46;94537.41;;;20.05;100.00
6694;BME280;3384;42.628;23.380;2022-10-01T12:25:18;94518.44;;;20.24;100.00
6694;BME280;3384;42.628;23.380;2022-10-01T12:27:56;94517.13;;;20.02;100.00
6694;BME280;3384;42.628;23.380;2022-10-01T12:30:28;94515.88;;;20.31;100.00
6694;BME280;3384;42.628;23.380;2022-10-01T12:33:18;94492.00;;;20.24;100.00
6694;BME280;3384;42.628;23.380;2022-10-01T12:35:57;94479.63;;;20.27;100.00
6694;BME280;3384;42.628;23.380;2022-10-01T12:38:46;94491.78;;;20.14;100.00
6694;BME280;3384;42.628;23.380;2022-10-01T12:41:27;94498.63;;;20.42;100.00
6694;BME280;3384;42.628;23.380;2022-10-01T12:44:08;94516.31;;;20.33;100.00
6694;BME280;3384;42.628;23.380;2022-10-01T12:46:43;94512.28;;;20.27;100.00
6694;BME280;3384;42.628;23.380;2022-10-01T12:49:21;94519.25;;;20.59;100.00
6694;BME280;3384;42.628;23.380;2022-10-01T12:51:55;94513.88;;;20.62;100.00
6694;BME280;3384;42.628;23.380;2022-10-01T12:54:57;94532.16;;;20.81;100.00
6694;BME280;3384;42.628;23.380;2022-10-01T12:57:41;94529.84;;;20.83;100.00
6694;BME280;3384;42.628;23.380;2022-10-01T13:00:19;94532.41;;;20.57;100.00
6694;BME280;3384;42.628;23.380;2022-10-01T13:06:14;94463.13;;;20.54;100.00
6694;BME280;3384;42.628;23.380;2022-10-01T13:08:53;94412.63;;;20.22;100.00
6694;BME280;3384;42.628;23.380;2022-10-01T13:11:32;94393.16;;;20.39;100.00
6694;BME280;3384;42.628;23.380;2022-10-01T13:14:10;94380.34;;;20.21;100.00
6694;BME280;3384;42.628;23.380;2022-10-01T13:16:42;94380.13;;;20.29;100.00
6694;BME280;3384;42.628;23.380;2022-10-01T13:19:26;94380.34;;;20.40;100.00
6694;BME280;3384;42.628;23.380;2022-10-01T13:22:02;94386.47;;;20.75;100.00
6694;BME280;3384;42.628;23.380;2022-10-01T13:24:37;94400.38;;;20.89;100.00
6694;BME280;3384;42.628;23.380;2022-10-01T13:27:09;94387.63;;;20.74;100.00
6694;BME280;3384;42.628;23.380;2022-10-01T13:29:55;94373.44;;;20.65;100.00
6694;BME280;3384;42.628;23.380;2022-10-01T13:32:30;94370.59;;;20.58;100.00
6694;BME280;3384;42.628;23.380;2022-10-01T13:37:46;94386.00;;;20.31;100.00
6694;BME280;3384;42.628;23.380;2022-10-01T13:40:24;94407.66;;;20.43;100.00
6694;BME280;3384;42.628;23.380;2022-10-01T13:42:56;94410.06;;;20.29;100.00
6694;BME280;3384;42.628;23.380;2022-10-01T13:45:28;94411.88;;;20.22;100.00
6694;BME280;3384;42.628;23.380;2022-10-01T13:48:10;94411.91;;;20.25;100.00
6694;BME280;3384;42.628;23.380;2022-10-01T13:50:51;94395.88;;;20.77;100.00
6694;BME280;3384;42.628;23.380;2022-10-01T13:53:22;94402.56;;;20.80;100.00
6694;BME280;3384;42.628;23.380;2022-10-01T13:55:51;94384.19;;;20.77;100.00
6694;BME280;3384;42.628;23.380;2022-10-01T13:58:21;94374.13;;;21.00;100.00
6694;BME280;3384;42.628;23.380;2022-10-01T14:00:56;94376.84;;;21.00;100.00
6694;BME280;3384;42.628;23.380;2022-10-01T14:03:30;94371.13;;;20.86;100.00
6694;BME280;3384;42.628;23.380;2022-10-01T14:06:02;94359.66;;;20.96;100.00
6694;BME280;3384;42.628;23.380;2022-10-01T14:08:37;94349.75;;;20.88;100.00
6694;BME280;3384;42.628;23.380;2022-10-01T14:11:10;94345.31;;;20.57;100.00
6694;BME280;3384;42.628;23.380;2022-10-01T14:14:03;94341.06;;;20.60;100.00
6694;BME280;3384;42.628;23.380;2022-10-01T14:16:53;94343.66;;;20.94;100.00
6694;BME280;3384;42.628;23.380;2022-10-01T14:19:24;94335.53;;;20.75;100.00
6694;BME280;3384;42.628;23.380;2022-10-01T14:25:19;94307.41;;;20.49;100.00
6694;BME280;3384;42.628;23.380;2022-10-01T14:28:00;94306.06;;;20.62;100.00
6694;BME280;3384;42.628;23.380;2022-10-01T14:30:36;94310.25;;;20.56;100.00
6694;BME280;3384;42.628;23.380;2022-10-01T14:33:18;94311.47;;;20.58;100.00
6694;BME280;3384;42.628;23.380;2022-10-01T14:35:57;94291.56;;;20.54;100.00
6694;BME280;3384;42.628;23.380;2022-10-01T14:38:31;94301.09;;;20.45;100.00
6694;BME280;3384;42.628;23.380;2022-10-01T14:41:00;94313.03;;;20.59;100.00
6694;BME280;3384;42.628;23.380;2022-10-01T14:43:31;94275.47;;;20.46;100.00
6694;BME280;3384;42.628;23.380;2022-10-01T14:46:01;94285.00;;;20.36;100.00
6694;BME280;3384;42.628;23.380;2022-10-01T14:48:30;94276.69;;;20.29;100.00
6694;BME280;3384;42.628;23.380;2022-10-01T14:51:02;94280.06;;;20.42;100.00
6694;BME280;3384;42.628;23.380;2022-10-01T14:53:33;94267.69;;;20.48;100.00
6694;BME280;3384;42.628;23.380;2022-10-01T14:56:04;94269.69;;;20.51;100.00
6694;BME280;3384;42.628;23.380;2022-10-01T14:58:34;94251.09;;;20.34;100.00
6694;BME280;3384;42.628;23.380;2022-10-01T15:01:04;94245.06;;;20.44;100.00
6694;BME280;3384;42.628;23.380;2022-10-01T15:03:44;94247.16;;;20.50;100.00
6694;BME280;3384;42.628;23.380;2022-10-01T15:06:13;94248.16;;;20.42;100.00
6694;BME280;3384;42.628;23.380;2022-10-01T15:08:42;94235.50;;;20.53;100.00
6694;BME280;3384;42.628;23.380;2022-10-01T15:11:12;94229.31;;;20.34;100.00
6694;BME280;3384;42.628;23.380;2022-10-01T15:13:42;94225.72;;;20.49;100.00
6694;BME280;3384;42.628;23.380;2022-10-01T15:16:11;94227.97;;;20.43;100.00
6694;BME280;3384;42.628;23.380;2022-10-01T15:18:47;94224.69;;;20.57;100.00
6694;BME280;3384;42.628;23.380;2022-10-01T15:21:20;94222.00;;;20.60;100.00
6694;BME280;3384;42.628;23.380;2022-10-01T15:23:48;94218.63;;;20.22;100.00
6694;BME280;3384;42.628;23.380;2022-10-01T15:26:21;94218.44;;;20.34;100.00
6694;BME280;3384;42.628;23.380;2022-10-01T15:28:48;94233.13;;;20.29;100.00
6694;BME280;3384;42.628;23.380;2022-10-01T15:31:20;94235.13;;;20.55;100.00
6694;BME280;3384;42.628;23.380;2022-10-01T15:33:48;94227.28;;;20.50;100.00
6694;BME280;3384;42.628;23.380;2022-10-01T15:36:17;94227.69;;;20.29;100.00
6694;BME280;3384;42.628;23.380;2022-10-01T15:38:47;94219.03;;;20.46;100.00
6694;BME280;3384;42.628;23.380;2022-10-01T15:41:21;94229.78;;;20.58;100.00
6694;BME280;3384;42.628;23.380;2022-10-01T15:43:50;94222.09;;;20.64;100.00
6694;BME280;3384;42.628;23.380;2022-10-01T15:46:20;94222.88;;;20.64;100.00
6694;BME280;3384;42.628;23.380;2022-10-01T15:49:15;94222.94;;;20.45;100.00
6694;BME280;3384;42.628;23.380;2022-10-01T15:51:46;94227.84;;;20.36;100.00
6694;BME280;3384;42.628;23.380;2022-10-01T15:54:39;94233.44;;;20.24;100.00
6694;BME280;3384;42.628;23.380;2022-10-01T15:57:14;94224.28;;;19.75;100.00
6694;BME280;3384;42.628;23.380;2022-10-01T15:59:44;94215.34;;;20.13;100.00
6694;BME280;3384;42.628;23.380;2022-10-01T16:02:18;94208.06;;;20.01;100.00
6694;BME280;3384;42.628;23.380;2022-10-01T16:04:48;94218.06;;;19.75;100.00
6694;BME280;3384;42.628;23.380;2022-10-01T16:07:24;94224.56;;;19.51;100.00
6694;BME280;3384;42.628;23.380;2022-10-01T16:09:56;94199.47;;;19.23;100.00
6694;BME280;3384;42.628;23.380;2022-10-01T16:12:25;94196.66;;;19.20;100.00
6694;BME280;3384;42.628;23.380;2022-10-01T16:14:59;94201.59;;;19.14;100.00
6694;BME280;3384;42.628;23.380;2022-10-01T16:17:30;94186.09;;;19.15;100.00
6694;BME280;3384;42.628;23.380;2022-10-01T16:23:32;94164.00;;;19.16;100.00
6694;BME280;3384;42.628;23.380;2022-10-01T16:26:05;94149.56;;;19.12;100.00
6694;BME280;3384;42.628;23.380;2022-10-01T16:28:33;94139.75;;;19.08;100.00
6694;BME280;3384;42.628;23.380;2022-10-01T16:31:02;94144.22;;;19.00;100.00
6694;BME280;3384;42.628;23.380;2022-10-01T16:33:32;94123.69;;;18.83;100.00
6694;BME280;3384;42.628;23.380;2022-10-01T16:36:20;94114.13;;;18.89;100.00
6694;BME280;3384;42.628;23.380;2022-10-01T16:38:49;94112.84;;;18.83;100.00
6694;BME280;3384;42.628;23.380;2022-10-01T16:41:18;94101.03;;;18.76;100.00
6694;BME280;3384;42.628;23.380;2022-10-01T16:43:46;94091.81;;;18.61;100.00
6694;BME280;3384;42.628;23.380;2022-10-01T16:46:14;94084.94;;;18.67;100.00
6694;BME280;3384;42.628;23.380;2022-10-01T16:48:40;94078.38;;;18.68;100.00
6694;BME280;3384;42.628;23.380;2022-10-01T16:51:09;94070.66;;;18.70;100.00
6694;BME280;3384;42.628;23.380;2022-10-01T16:53:38;94054.38;;;18.70;100.00
6694;BME280;3384;42.628;23.380;2022-10-01T16:56:07;94064.22;;;18.59;100.00
6694;BME280;3384;42.628;23.380;2022-10-01T16:58:34;94055.06;;;18.48;100.00
6694;BME280;3384;42.628;23.380;2022-10-01T17:01:04;94056.56;;;18.46;100.00
6694;BME280;3384;42.628;23.380;2022-10-01T17:03:32;94046.47;;;18.46;100.00
6694;BME280;3384;42.628;23.380;2022-10-01T17:05:59;94050.38;;;18.49;100.00
6694;BME280;3384;42.628;23.380;2022-10-01T17:08:26;94043.75;;;18.46;100.00
6694;BME280;3384;42.628;23.380;2022-10-01T17:10:55;94030.53;;;18.79;100.00
6694;BME280;3384;42.628;23.380;2022-10-01T17:13:24;94031.97;;;18.92;100.00
6694;BME280;3384;42.628;23.380;2022-10-01T17:15:52;94033.19;;;18.60;100.00
6694;BME280;3384;42.628;23.380;2022-10-01T17:18:19;94028.00;;;18.90;100.00
6694;BME280;3384;42.628;23.380;2022-10-01T17:20:46;94024.38;;;18.82;100.00
6694;BME280;3384;42.628;23.380;2022-10-01T17:23:15;94027.94;;;19.05;100.00
6694;BME280;3384;42.628;23.380;2022-10-01T17:25:42;94017.41;;;19.04;100.00
6694;BME280;3384;42.628;23.380;2022-10-01T17:28:12;94019.38;;;19.03;100.00
6694;BME280;3384;42.628;23.380;2022-10-01T17:30:40;94020.41;;;18.80;100.00
6694;BME280;3384;42.628;23.380;2022-10-01T17:33:09;94009.78;;;18.90;100.00
6694;BME280;3384;42.628;23.380;2022-10-01T17:35:40;93996.69;;;18.58;100.00
6694;BME280;3384;42.628;23.380;2022-10-01T17:38:08;93988.50;;;18.73;100.00
6694;BME280;3384;42.628;23.380;2022-10-01T17:40:35;93995.00;;;18.88;100.00
6694;BME280;3384;42.628;23.380;2022-10-01T17:43:04;94000.72;;;19.02;100.00
6694;BME280;3384;42.628;23.380;2022-10-01T17:45:32;93995.13;;;18.76;100.00
6694;BME280;3384;42.628;23.380;2022-10-01T17:47:59;93995.44;;;18.71;100.00
6694;BME280;3384;42.628;23.380;2022-10-01T17:50:26;94006.50;;;18.81;100.00
6694;BME280;3384;42.628;23.380;2022-10-01T17:52:53;94013.00;;;18.77;100.00
6694;BME280;3384;42.628;23.380;2022-10-01T17:55:20;94011.53;;;19.21;100.00
6694;BME280;3384;42.628;23.380;2022-10-01T17:57:48;93996.63;;;19.12;100.00
6694;BME280;3384;42.628;23.380;2022-10-01T18:00:15;93992.53;;;19.21;100.00
6694;BME280;3384;42.628;23.380;2022-10-01T18:02:43;94000.13;;;18.93;100.00
6694;BME280;3384;42.628;23.380;2022-10-01T18:05:11;93996.00;;;18.99;100.00
6694;BME280;3384;42.628;23.380;2022-10-01T18:07:39;93991.91;;;19.08;100.00
6694;BME280;3384;42.628;23.380;2022-10-01T18:10:09;93986.94;;;18.72;100.00
6694;BME280;3384;42.628;23.380;2022-10-01T18:12:36;93978.75;;;18.53;100.00
6694;BME280;3384;42.628;23.380;2022-10-01T18:15:04;93981.97;;;18.59;100.00
6694;BME280;3384;42.628;23.380;2022-10-01T18:17:31;93996.78;;;18.61;100.00
6694;BME280;3384;42.628;23.380;2022-10-01T18:20:00;93976.25;;;18.45;100.00
6694;BME280;3384;42.628;23.380;2022-10-01T18:22:27;93970.91;;;18.48;100.00
6694;BME280;3384;42.628;23.380;2022-10-01T18:24:54;93974.03;;;18.50;100.00
6694;BME280;3384;42.628;23.380;2022-10-01T18:27:21;93990.41;;;18.54;100.00
6694;BME280;3384;42.628;23.380;2022-10-01T18:29:48;93994.88;;;18.81;100.00
6694;BME280;3384;42.628;23.380;2022-10-01T18:32:17;93982.94;;;18.85;100.00
6694;BME280;3384;42.628;23.380;2022-10-01T18:34:46;93988.50;;;18.73;100.00
6694;BME280;3384;42.628;23.380;2022-10-01T18:37:23;94001.06;;;19.00;100.00
6694;BME280;3384;42.628;23.380;2022-10-01T18:39:57;93998.84;;;18.87;100.00
6694;BME280;3384;42.628;23.380;2022-10-01T18:42:37;93991.28;;;18.58;100.00
6694;BME280;3384;42.628;23.380;2022-10-01T18:45:14;93979.06;;;18.48;100.00
6694;BME280;3384;42.628;23.380;2022-10-01T18:47:50;93968.34;;;18.55;100.00
6694;BME280;3384;42.628;23.380;2022-10-01T18:50:37;93950.06;;;18.52;100.00
6694;BME280;3384;42.628;23.380;2022-10-01T18:53:23;93956.47;;;18.63;100.00
6694;BME280;3384;42.628;23.380;2022-10-01T18:56:05;93940.63;;;18.46;100.00
6694;BME280;3384;42.628;23.380;2022-10-01T18:58:51;93920.66;;;18.54;100.00
6694;BME280;3384;42.628;23.380;2022-10-01T19:01:31;93905.66;;;18.41;100.00
6694;BME280;3384;42.628;23.380;2022-10-01T19:04:11;93891.47;;;18.32;100.00
6694;BME280;3384;42.628;23.380;2022-10-01T19:06:55;93885.19;;;18.28;100.00
6694;BME280;3384;42.628;23.380;2022-10-01T19:09:32;93897.94;;;18.28;100.00
6694;BME280;3384;42.628;23.380;2022-10-01T19:12:13;93894.88;;;18.29;100.00
6694;BME280;3384;42.628;23.380;2022-10-01T19:14:54;93887.09;;;18.28;100.00
6694;BME280;3384;42.628;23.380;2022-10-01T19:17:59;93877.03;;;18.28;100.00
6694;BME280;3384;42.628;23.380;2022-10-01T19:20:49;93872.31;;;18.25;100.00
6694;BME280;3384;42.628;23.380;2022-10-01T19:23:53;93865.81;;;18.11;100.00
6694;BME280;3384;42.628;23.380;2022-10-01T19:26:36;93859.69;;;18.14;100.00
6694;BME280;3384;42.628;23.380;2022-10-01T19:29:17;93838.47;;;18.19;100.00
6694;BME280;3384;42.628;23.380;2022-10-01T19:31:51;93831.22;;;18.23;100.00
6694;BME280;3384;42.628;23.380;2022-10-01T19:34:24;93833.81;;;18.16;100.00
6694;BME280;3384;42.628;23.380;2022-10-01T19:36:55;93853.13;;;18.15;100.00
6694;BME280;3384;42.628;23.380;2022-10-01T19:39:26;93942.06;;;18.06;100.00
6694;BME280;3384;42.628;23.380;2022-10-01T19:42:00;94016.50;;;18.08;100.00
6694;BME280;3384;42.628;23.380;2022-10-01T19:44:36;94087.34;;;18.22;100.00
6694;BME280;3384;42.628;23.380;2022-10-01T19:47:18;94075.03;;;18.40;100.00
6694;BME280;3384;42.628;23.380;2022-10-01T19:49:50;94107.16;;;18.07;100.00
6694;BME280;3384;42.628;23.380;2022-10-01T19:52:20;94070.31;;;17.75;100.00
6694;BME280;3384;42.628;23.380;2022-10-01T19:54:52;94057.28;;;17.50;100.00
6694;BME280;3384;42.628;23.380;2022-10-01T19:57:24;94036.28;;;17.62;100.00
6694;BME280;3384;42.628;23.380;2022-10-01T19:59:57;94007.09;;;17.56;100.00
6694;BME280;3384;42.628;23.380;2022-10-01T20:02:32;93982.00;;;17.59;100.00
6694;BME280;3384;42.628;23.380;2022-10-01T20:05:04;93985.94;;;17.61;100.00
6694;BME280;3384;42.628;23.380;2022-10-01T20:07:38;93976.06;;;17.53;100.00
6694;BME280;3384;42.628;23.380;2022-10-01T20:10:18;93972.75;;;17.44;100.00
6694;BME280;3384;42.628;23.380;2022-10-01T20:12:52;93980.22;;;17.35;100.00
6694;BME280;3384;42.628;23.380;2022-10-01T20:15:37;93971.66;;;17.33;100.00
6694;BME280;3384;42.628;23.380;2022-10-01T20:18:15;93962.81;;;17.36;100.00
6694;BME280;3384;42.628;23.380;2022-10-01T20:20:57;93971.84;;;17.40;100.00
6694;BME280;3384;42.628;23.380;2022-10-01T20:23:38;93966.88;;;17.42;100.00
6694;BME280;3384;42.628;23.380;2022-10-01T20:26:14;93951.22;;;17.36;100.00
6694;BME280;3384;42.628;23.380;2022-10-01T20:28:53;93954.78;;;17.24;100.00
6694;BME280;3384;42.628;23.380;2022-10-01T20:31:28;93944.13;;;17.31;100.00
6694;BME280;3384;42.628;23.380;2022-10-01T20:34:05;93935.47;;;17.41;100.00
6694;BME280;3384;42.628;23.380;2022-10-01T20:36:40;93954.44;;;17.41;100.00
6694;BME280;3384;42.628;23.380;2022-10-01T20:39:15;93963.03;;;17.43;100.00
6694;BME280;3384;42.628;23.380;2022-10-01T20:41:47;93966.69;;;17.51;100.00
6694;BME280;3384;42.628;23.380;2022-10-01T20:44:23;93976.22;;;17.60;100.00
6694;BME280;3384;42.628;23.380;2022-10-01T20:46:53;93991.44;;;17.65;100.00
6694;BME280;3384;42.628;23.380;2022-10-01T20:49:29;93990.06;;;17.55;100.00
6694;BME280;3384;42.628;23.380;2022-10-01T20:52:01;93989.53;;;17.65;100.00
6694;BME280;3384;42.628;23.380;2022-10-01T20:54:32;93966.00;;;17.69;100.00
6694;BME280;3384;42.628;23.380;2022-10-01T20:57:08;93958.84;;;17.77;100.00
6694;BME280;3384;42.628;23.380;2022-10-01T20:59:48;93912.09;;;17.83;100.00
6694;BME280;3384;42.628;23.380;2022-10-01T21:02:24;93846.34;;;17.86;100.00
6694;BME280;3384;42.628;23.380;2022-10-01T21:04:57;93824.97;;;17.66;100.00
6694;BME280;3384;42.628;23.380;2022-10-01T21:07:34;93865.56;;;17.62;100.00
6694;BME280;3384;42.628;23.380;2022-10-01T21:10:14;93882.44;;;17.56;100.00
6694;BME280;3384;42.628;23.380;2022-10-01T21:12:54;93907.28;;;17.42;100.00
6694;BME280;3384;42.628;23.380;2022-10-01T21:15:33;93898.53;;;17.33;100.00
6694;BME280;3384;42.628;23.380;2022-10-01T21:18:08;93903.06;;;17.60;100.00
6694;BME280;3384;42.628;23.380;2022-10-01T21:20:57;93928.41;;;17.52;100.00
6694;BME280;3384;42.628;23.380;2022-10-01T21:26:36;93883.16;;;17.53;100.00
6694;BME280;3384;42.628;23.380;2022-10-01T21:29:24;93870.97;;;17.62;100.00
6694;BME280;3384;42.628;23.380;2022-10-01T21:32:04;93863.94;;;17.77;100.00
6694;BME280;3384;42.628;23.380;2022-10-01T21:34:48;93825.28;;;17.80;100.00
6694;BME280;3384;42.628;23.380;2022-10-01T21:37:26;93798.97;;;17.80;100.00
6694;BME280;3384;42.628;23.380;2022-10-01T21:40:02;93813.06;;;17.70;100.00
6694;BME280;3384;42.628;23.380;2022-10-01T21:42:41;93804.56;;;17.53;100.00
6694;BME280;3384;42.628;23.380;2022-10-01T21:45:20;93798.94;;;17.61;100.00
6694;BME280;3384;42.628;23.380;2022-10-01T21:48:00;93791.72;;;17.69;100.00
6694;BME280;3384;42.628;23.380;2022-10-01T21:50:36;93863.56;;;17.94;100.00
6694;BME280;3384;42.628;23.380;2022-10-01T21:53:23;93879.63;;;18.02;100.00
6694;BME280;3384;42.628;23.380;2022-10-01T21:56:08;93925.50;;;17.76;100.00
6694;BME280;3384;42.628;23.380;2022-10-01T21:58:59;93930.75;;;17.69;100.00
6694;BME280;3384;42.628;23.380;2022-10-01T22:01:43;93899.75;;;17.67;100.00
6694;BME280;3384;42.628;23.380;2022-10-01T22:04:19;93912.84;;;17.65;100.00
6694;BME280;3384;42.628;23.380;2022-10-01T22:06:51;93912.94;;;17.68;100.00
6694;BME280;3384;42.628;23.380;2022-10-01T22:09:31;93931.63;;;17.73;100.00
6694;BME280;3384;42.628;23.380;2022-10-01T22:12:01;93942.06;;;17.71;100.00
6694;BME280;3384;42.628;23.380;2022-10-01T22:14:30;93942.94;;;17.60;100.00
6694;BME280;3384;42.628;23.380;2022-10-01T22:17:04;93949.72;;;17.38;100.00
6694;BME280;3384;42.628;23.380;2022-10-01T22:19:37;93934.63;;;17.53;100.00
6694;BME280;3384;42.628;23.380;2022-10-01T22:22:11;93946.84;;;17.31;100.00
6694;BME280;3384;42.628;23.380;2022-10-01T22:24:46;93940.03;;;17.37;100.00
6694;BME280;3384;42.628;23.380;2022-10-01T22:27:16;93942.50;;;17.42;100.00
6694;BME280;3384;42.628;23.380;2022-10-01T22:29:53;93943.44;;;17.34;100.00
6694;BME280;3384;42.628;23.380;2022-10-01T22:32:24;93958.03;;;17.30;100.00
6694;BME280;3384;42.628;23.380;2022-10-01T22:34:56;93972.63;;;17.41;100.00
6694;BME280;3384;42.628;23.380;2022-10-01T22:37:34;93980.94;;;17.48;100.00
6694;BME280;3384;42.628;23.380;2022-10-01T22:40:08;93960.22;;;17.40;100.00
6694;BME280;3384;42.628;23.380;2022-10-01T22:42:39;93963.28;;;17.38;100.00
6694;BME280;3384;42.628;23.380;2022-10-01T22:45:12;93965.38;;;17.45;100.00
6694;BME280;3384;42.628;23.380;2022-10-01T22:47:52;93966.78;;;17.39;100.00
6694;BME280;3384;42.628;23.380;2022-10-01T22:50:37;93900.63;;;17.55;100.00
6694;BME280;3384;42.628;23.380;2022-10-01T22:53:23;93884.00;;;17.57;100.00
6694;BME280;3384;42.628;23.380;2022-10-01T22:55:53;93906.56;;;17.45;100.00
6694;BME280;3384;42.628;23.380;2022-10-01T22:58:41;93907.69;;;17.60;100.00
6694;BME280;3384;42.628;23.380;2022-10-01T23:01:14;93908.41;;;17.57;100.00
6694;BME280;3384;42.628;23.380;2022-10-01T23:04:03;93918.97;;;17.46;100.00
6694;BME280;3384;42.628;23.380;2022-10-01T23:06:35;93920.09;;;17.30;100.00
6694;BME280;3384;42.628;23.380;2022-10-01T23:09:11;93915.13;;;17.16;100.00
6694;BME280;3384;42.628;23.380;2022-10-01T23:11:46;93910.06;;;16.99;100.00
6694;BME280;3384;42.628;23.380;2022-10-01T23:14:27;93898.09;;;17.16;100.00
6694;BME280;3384;42.628;23.380;2022-10-01T23:17:05;93909.44;;;17.06;100.00
6694;BME280;3384;42.628;23.380;2022-10-01T23:19:41;93928.47;;;16.94;100.00
6694;BME280;3384;42.628;23.380;2022-10-01T23:22:26;93939.63;;;16.77;100.00
6694;BME280;3384;42.628;23.380;2022-10-01T23:25:12;93957.53;;;16.81;100.00
6694;BME280;3384;42.628;23.380;2022-10-01T23:27:48;93958.59;;;16.92;100.00
6694;BME280;3384;42.628;23.380;2022-10-01T23:30:19;93951.00;;;16.98;100.00
6694;BME280;3384;42.628;23.380;2022-10-01T23:33:08;93960.28;;;17.12;100.00
6694;BME280;3384;42.628;23.380;2022-10-01T23:35:46;93968.75;;;16.95;100.00
6694;BME280;3384;42.628;23.380;2022-10-01T23:38:24;93965.38;;;16.86;100.00
6694;BME280;3384;42.628;23.380;2022-10-01T23:40:55;93959.00;;;16.79;100.00
6694;BME280;3384;42.628;23.380;2022-10-01T23:43:28;93959.34;;;16.50;100.00
6694;BME280;3384;42.628;23.380;2022-10-01T23:45:59;93949.13;;;16.43;100.00
6694;BME280;3384;42.628;23.380;2022-10-01T23:48:33;93952.78;;;16.63;100.00
6694;BME280;3384;42.628;23.380;2022-10-01T23:51:06;93944.50;;;16.71;100.00
6694;BME280;3384;42.628;23.380;2022-10-01T23:53:43;93948.66;;;16.69;100.00
6694;BME280;3384;42.628;23.380;2022-10-01T23:56:14;93937.25;;;16.75;100.00
6694;BME280;3384;42.628;23.380;2022-10-01T23:59:02;93940.19;;;16.70;100.00
